Time;durP1;ratioP1;P1;durP2;ratioP2;P2;SDS_P1;SDS_P2;PMS_P1;PMS_P2;Temp;Humidity;BMP_temperature;BMP_pressure;BME280_temperature;BME280_humidity;BME280_pressure;Samples;Min_cycle;Max_cycle;Signal;HPM_P1;HPM_P2
2021/11/12 00:14:44;;;;;;;;;70.50;57.00;10.00;69.40;;;;;;5048561;28;8842;-63
2021/11/12 00:17:11;;;;;;;;;70.00;58.25;9.80;69.70;;;;;;5058413;28;8772;-61
2021/11/12 00:19:37;;;;;;;;;70.50;58.00;9.90;69.50;;;;;;5058530;28;8848;-62
2021/11/12 00:22:04;;;;;;;;;71.00;57.75;9.90;69.20;;;;;;5058468;28;8768;-63
2021/11/12 00:24:30;;;;;;;;;67.00;54.75;9.90;69.80;;;;;;5051718;28;8775;-64
2021/11/12 00:26:56;;;;;;;;;67.50;56.50;10.30;68.10;;;;;;5038219;28;8770;-63
2021/11/12 00:29:23;;;;;;;;;66.50;54.75;10.10;68.50;;;;;;5038371;28;8785;-62
2021/11/12 00:32:13;;;;;;;;;70.00;56.25;10.20;68.30;;;;;;5038013;28;8842;-62
2021/11/12 00:35:03;;;;;;;;;68.50;55.50;9.90;68.90;;;;;;5037600;28;8848;-64
2021/11/12 00:40:10;;;;;;;;;68.75;57.25;9.80;69.50;;;;;;5038100;28;8751;-61
2021/11/12 00:45:04;;;;;;;;;72.25;57.75;10.10;68.50;;;;;;5038156;28;9439;-62
2021/11/12 00:55:10;;;;;;;;;67.00;54.50;10.00;68.50;;;;;;5055488;28;8815;-63
2021/11/12 00:57:35;;;;;;;;;64.00;53.00;10.00;68.20;;;;;;5057793;28;9485;-63
2021/11/12 01:00:04;;;;;;;;;65.75;53.00;10.30;67.20;;;;;;5057560;28;8764;-63
2021/11/12 01:02:30;;;;;;;;;63.75;53.00;9.90;68.10;;;;;;5058056;28;8788;-62
2021/11/12 01:04:56;;;;;;;;;73.25;57.25;10.30;67.60;;;;;;5057409;28;8795;-63
2021/11/12 01:07:22;;;;;;;;;71.50;57.75;10.00;68.30;;;;;;5057278;28;8756;-63
2021/11/12 01:09:50;;;;;;;;;70.00;55.50;9.80;69.70;;;;;;5039866;28;8810;-63
2021/11/12 01:12:16;;;;;;;;;64.75;54.00;9.70;69.80;;;;;;5057284;28;8857;-63
2021/11/12 01:14:42;;;;;;;;;67.25;56.00;9.90;69.40;;;;;;5057443;28;8800;-63
2021/11/12 01:17:08;;;;;;;;;63.75;53.50;10.20;68.50;;;;;;5057452;28;9222;-62
2021/11/12 01:19:33;;;;;;;;;68.50;56.50;10.10;68.30;;;;;;5057156;28;9526;-62
2021/11/12 01:21:59;;;;;;;;;63.25;51.50;10.00;68.70;;;;;;5057399;28;8740;-63
2021/11/12 01:24:25;;;;;;;;;68.25;57.00;10.00;69.00;;;;;;5057006;28;8806;-62
2021/11/12 01:26:51;;;;;;;;;62.25;52.25;10.00;68.60;;;;;;5057208;28;8792;-61
2021/11/12 01:29:17;;;;;;;;;58.25;49.50;9.80;69.00;;;;;;5057239;28;9623;-66
2021/11/12 01:31:42;;;;;;;;;64.25;54.50;9.60;69.60;;;;;;5056725;28;9578;-64
2021/11/12 01:34:10;;;;;;;;;64.50;54.00;9.20;70.80;;;;;;5056762;28;8792;-62
2021/11/12 01:36:40;;;;;;;;;61.00;51.00;9.40;70.40;;;;;;5057124;28;8787;-64
2021/11/12 01:39:10;;;;;;;;;55.50;48.00;9.60;69.70;;;;;;5056869;28;8833;-64
2021/11/12 01:41:40;;;;;;;;;67.25;55.50;9.60;69.60;;;;;;5056820;28;8764;-64
2021/11/12 01:44:09;;;;;;;;;62.75;52.25;9.80;69.00;;;;;;5056972;28;8807;-64
2021/11/12 01:49:15;;;;;;;;;62.00;51.50;10.20;67.20;;;;;;5056955;28;8817;-63
2021/11/12 01:51:54;;;;;;;;;60.50;51.25;10.10;67.70;;;;;;5056622;28;8768;-63
2021/11/12 01:54:40;;;;;;;;;56.50;47.00;10.30;66.90;;;;;;5056669;28;8828;-61
2021/11/12 01:57:23;;;;;;;;;58.50;50.25;10.00;67.60;;;;;;5056526;28;8841;-63
2021/11/12 01:59:51;;;;;;;;;56.50;48.25;10.30;67.20;;;;;;5056529;28;9568;-62
2021/11/12 02:02:17;;;;;;;;;57.50;49.25;9.50;68.90;;;;;;5056410;28;8826;-64
2021/11/12 02:04:43;;;;;;;;;61.00;51.25;9.50;69.10;;;;;;5056417;28;8791;-64
2021/11/12 02:07:11;;;;;;;;;60.25;51.00;9.80;68.30;;;;;;5056298;28;8788;-62
2021/11/12 02:09:38;;;;;;;;;61.75;53.00;10.20;67.40;;;;;;5056281;28;8779;-63
2021/11/12 02:14:43;;;;;;;;;60.25;50.25;9.90;67.40;;;;;;5056125;28;9408;-65
2021/11/12 02:17:14;;;;;;;;;64.25;52.50;10.00;68.10;;;;;;5054429;28;8772;-63
2021/11/12 02:19:48;;;;;;;;;63.50;54.00;9.80;68.70;;;;;;5056366;28;8760;-64
2021/11/12 02:22:16;;;;;;;;;68.25;55.75;9.90;68.10;;;;;;5056586;28;8783;-63
2021/11/12 02:27:38;;;;;;;;;59.00;49.00;9.80;67.20;;;;;;5056111;28;8736;-62
2021/11/12 02:30:04;;;;;;;;;57.25;47.25;9.90;67.10;;;;;;5056128;28;8772;-63
2021/11/12 02:32:30;;;;;;;;;54.50;47.25;10.40;65.70;;;;;;5055553;28;8870;-63
2021/11/12 02:35:02;;;;;;;;;54.25;46.25;10.60;64.70;;;;;;5055455;28;8828;-64
2021/11/12 02:37:31;;;;;;;;;60.00;50.25;10.50;65.20;;;;;;5055305;28;8760;-64
2021/11/12 02:39:57;;;;;;;;;59.00;50.00;10.40;65.00;;;;;;5055629;28;9426;-62
2021/11/12 02:42:24;;;;;;;;;56.00;47.75;9.90;66.60;;;;;;5055571;28;8744;-64
2021/11/12 02:44:51;;;;;;;;;54.25;46.50;9.90;67.10;;;;;;5055551;28;8780;-63
2021/11/12 02:47:20;;;;;;;;;64.25;53.50;9.60;68.40;;;;;;5055562;28;8849;-62
2021/11/12 02:49:46;;;;;;;;;61.00;52.25;9.90;67.90;;;;;;5055711;28;8799;-63
2021/11/12 02:52:17;;;;;;;;;60.75;50.75;10.10;67.50;;;;;;5055676;28;8780;-63
2021/11/12 02:54:43;;;;;;;;;65.25;54.25;10.20;67.00;;;;;;5055348;28;8812;-62
2021/11/12 02:57:09;;;;;;;;;62.75;52.75;9.60;68.70;;;;;;5055627;28;8780;-63
2021/11/12 02:59:36;;;;;;;;;58.00;48.75;9.70;68.40;;;;;;5055274;28;8774;-63
2021/11/12 03:02:06;;;;;;;;;63.50;52.50;9.80;67.90;;;;;;5055435;28;8815;-64
2021/11/12 03:04:32;;;;;;;;;67.75;56.00;10.10;67.20;;;;;;5055315;28;8788;-63
2021/11/12 03:06:59;;;;;;;;;61.75;52.00;10.30;66.50;;;;;;5055178;28;8880;-63
2021/11/12 03:09:30;;;;;;;;;57.50;49.25;10.10;67.10;;;;;;5037471;28;8861;-62
2021/11/12 03:11:57;;;;;;;;;57.75;46.75;10.00;67.40;;;;;;5055370;28;9581;-63
2021/11/12 03:14:25;;;;;;;;;60.75;51.00;9.90;67.90;;;;;;5055179;28;8873;-63
2021/11/12 03:16:51;;;;;;;;;64.25;54.50;10.10;68.40;;;;;;5055000;28;8776;-62
2021/11/12 03:19:19;;;;;;;;;59.50;50.75;10.00;67.70;;;;;;5055150;28;8763;-62
2021/11/12 03:21:46;;;;;;;;;64.00;54.00;10.20;67.30;;;;;;5054927;28;9426;-63
2021/11/12 03:24:24;;;;;;;;;61.50;51.00;10.30;66.90;;;;;;5055181;28;8867;-61
2021/11/12 04:02:28;;;;;;;;;64.75;54.50;11.10;63.60;;;;;;5054696;28;8942;-63
2021/11/12 05:50:23;;;;;;;;;59.00;48.25;10.00;67.60;;;;;;5057072;28;8773;-65
2021/11/12 05:55:33;;;;;;;;;60.00;51.00;9.60;68.60;;;;;;5056731;28;8800;-65
2021/11/12 05:57:59;;;;;;;;;61.25;51.75;9.50;69.50;;;;;;5056613;28;8888;-64
2021/11/12 06:00:26;;;;;;;;;46.75;42.25;9.90;68.40;;;;;;5056581;28;8772;-65
2021/11/12 06:02:52;;;;;;;;;58.50;49.75;9.90;68.00;;;;;;5056827;28;8811;-65
2021/11/12 06:05:19;;;;;;;;;64.50;53.00;9.90;68.20;;;;;;5056414;28;8792;-65
2021/11/12 06:07:47;;;;;;;;;69.00;56.50;9.90;67.70;;;;;;5056621;28;9430;-64
2021/11/12 06:10:14;;;;;;;;;64.75;54.75;9.80;68.00;;;;;;5056538;28;8886;-65
2021/11/12 06:12:40;;;;;;;;;62.25;52.50;9.80;68.00;;;;;;5055579;28;8765;-65
2021/11/12 06:15:06;;;;;;;;;67.75;53.75;9.50;69.00;;;;;;5056029;28;8827;-66
2021/11/12 06:17:33;;;;;;;;;65.75;55.00;10.10;67.70;;;;;;5056090;28;8764;-64
2021/11/12 06:20:00;;;;;;;;;52.25;44.00;10.40;66.60;;;;;;5056118;28;8768;-65
2021/11/12 06:22:26;;;;;;;;;55.25;46.00;10.40;65.70;;;;;;5056286;28;8756;-65
2021/11/12 06:24:52;;;;;;;;;54.50;47.25;10.10;66.90;;;;;;5056145;28;8857;-65
2021/11/12 06:27:19;;;;;;;;;51.50;45.00;9.90;67.70;;;;;;5056031;28;8756;-64
2021/11/12 06:29:45;;;;;;;;;59.00;50.25;10.30;66.80;;;;;;5056056;28;8786;-66
2021/11/12 06:32:11;;;;;;;;;64.00;53.50;10.40;66.20;;;;;;5055646;28;8934;-65
2021/11/12 06:34:37;;;;;;;;;58.50;50.25;10.30;66.20;;;;;;5055704;28;8824;-65
2021/11/12 06:37:03;;;;;;;;;57.00;48.75;10.50;66.20;;;;;;5055656;28;8784;-64
2021/11/12 06:39:30;;;;;;;;;60.75;50.25;10.30;66.20;;;;;;5055705;28;8786;-65
2021/11/12 06:41:58;;;;;;;;;59.75;51.75;10.30;66.20;;;;;;5055946;28;8795;-64
2021/11/12 06:49:15;;;;;;;;;59.25;48.25;10.40;66.50;;;;;;5055619;28;8780;-65
2021/11/12 06:50:23;;;;;;;;;45.50;39.75;9.90;67.40;;;;;;5055652;28;8887;-65
2021/11/12 06:52:49;;;;;;;;;56.75;48.25;10.00;67.80;;;;;;5055744;28;8826;-66
2021/11/12 06:55:16;;;;;;;;;58.50;49.00;9.80;68.80;;;;;;5055583;28;8808;-65
2021/11/12 06:57:43;;;;;;;;;58.75;49.25;10.00;68.20;;;;;;5055387;28;8784;-65
2021/11/12 07:00:12;;;;;;;;;58.50;48.50;10.20;67.90;;;;;;5055230;28;8803;-65
2021/11/12 07:02:38;;;;;;;;;44.75;40.25;10.30;67.30;;;;;;5055647;28;8800;-65
2021/11/12 07:05:05;;;;;;;;;52.00;44.25;10.60;66.30;;;;;;5055119;28;8792;-65
2021/11/12 07:07:30;;;;;;;;;41.50;38.25;10.70;66.00;;;;;;5055451;28;8752;-64
2021/11/12 07:09:56;;;;;;;;;57.50;47.75;10.40;66.30;;;;;;5055084;28;8798;-65
2021/11/12 07:12:22;;;;;;;;;62.75;53.00;10.60;66.40;;;;;;5055069;28;8768;-66
2021/11/12 07:14:48;;;;;;;;;63.50;54.25;10.70;66.20;;;;;;5054936;28;8807;-65
2021/11/12 07:17:15;;;;;;;;;69.00;57.25;11.00;65.20;;;;;;5055002;28;8760;-65
2021/11/12 07:19:42;;;;;;;;;62.75;53.00;10.90;66.50;;;;;;5055165;28;8768;-65
2021/11/12 07:22:08;;;;;;;;;56.50;46.75;10.70;65.50;;;;;;5054965;28;8779;-65
2021/11/12 07:24:34;;;;;;;;;56.50;48.50;10.50;66.40;;;;;;5055058;28;8774;-65
2021/11/12 07:27:00;;;;;;;;;58.50;49.25;10.30;66.50;;;;;;5055062;28;8776;-66
2021/11/12 07:29:28;;;;;;;;;54.50;46.75;10.30;67.90;;;;;;5054802;28;8764;-66
2021/11/12 07:31:55;;;;;;;;;55.25;46.00;9.90;68.90;;;;;;5054657;28;8848;-66
2021/11/12 07:34:24;;;;;;;;;39.25;37.75;9.90;69.20;;;;;;5054890;28;8776;-64
2021/11/12 07:36:52;;;;;;;;;50.50;43.25;10.20;68.30;;;;;;5054751;28;8803;-63
2021/11/12 07:39:36;;;;;;;;;50.25;44.25;10.40;66.90;;;;;;5037469;28;9444;-64
2021/11/12 07:47:16;;;;;;;;;53.00;45.00;9.70;69.50;;;;;;5054611;28;8752;-66
2021/11/12 07:49:56;;;;;;;;;54.25;46.50;9.60;70.60;;;;;;5054513;28;8786;-65
2021/11/12 07:52:29;;;;;;;;;51.00;42.50;10.30;68.30;;;;;;5054459;28;8784;-65
2021/11/12 07:54:56;;;;;;;;;52.25;45.00;10.20;67.90;;;;;;5054404;28;8930;-65
2021/11/12 07:57:22;;;;;;;;;58.00;48.75;9.90;68.60;;;;;;5054636;28;8882;-66
2021/11/12 07:59:48;;;;;;;;;60.25;50.25;10.00;68.50;;;;;;5054316;28;8849;-65
2021/11/12 08:02:16;;;;;;;;;60.50;50.50;10.00;68.20;;;;;;5054577;28;8927;-66
2021/11/12 08:04:44;;;;;;;;;67.50;54.75;10.10;67.70;;;;;;5054320;28;8891;-64
2021/11/12 08:07:11;;;;;;;;;64.50;54.00;10.10;67.80;;;;;;5054126;28;8776;-66
2021/11/12 08:09:40;;;;;;;;;61.25;51.50;9.60;68.90;;;;;;5036524;28;8770;-63
2021/11/12 08:12:11;;;;;;;;;61.50;52.00;9.40;70.00;;;;;;5034373;28;8790;-64
2021/11/12 08:19:46;;;;;;;;;54.25;46.75;9.40;69.50;;;;;;5034403;28;8807;-62
2021/11/12 08:25:05;;;;;;;;;54.25;47.25;9.60;69.20;;;;;;5034192;28;8763;-63
2021/11/12 08:36:38;;;;;;;;;54.50;46.50;10.20;67.90;;;;;;5036134;28;8806;-63
2021/11/12 08:43:32;;;;;;;;;61.50;49.25;10.50;66.40;;;;;;5021203;28;8754;-64
2021/11/12 08:46:12;;;;;;;;;55.75;47.50;10.60;66.30;;;;;;5037489;28;8893;-64
2021/11/12 08:48:42;;;;;;;;;50.25;44.50;10.80;65.20;;;;;;5037788;28;8770;-64
2021/11/12 08:51:14;;;;;;;;;51.75;45.00;10.80;64.80;;;;;;5037991;28;9420;-64
2021/11/12 08:53:41;;;;;;;;;49.50;43.75;10.50;64.90;;;;;;5037952;28;8785;-63
2021/11/12 08:56:12;;;;;;;;;48.50;42.50;10.60;65.80;;;;;;5037505;28;8838;-65
2021/11/12 08:58:46;;;;;;;;;56.50;48.25;10.30;66.20;;;;;;5037403;28;8786;-63
2021/11/12 09:01:13;;;;;;;;;58.00;48.50;10.40;66.00;;;;;;5037766;28;8786;-63
2021/11/12 09:03:40;;;;;;;;;48.00;42.25;10.60;65.50;;;;;;5037816;28;8790;-64
2021/11/12 09:06:06;;;;;;;;;53.25;46.50;10.30;66.10;;;;;;5034449;28;8778;-63
2021/11/12 09:08:34;;;;;;;;;57.25;47.75;10.10;67.00;;;;;;5037954;28;8867;-62
2021/11/12 09:11:01;;;;;;;;;54.25;45.50;9.70;68.30;;;;;;5037326;28;8790;-64
2021/11/12 09:13:31;;;;;;;;;57.50;48.50;9.70;68.60;;;;;;5037285;28;8755;-63
2021/11/12 09:16:02;;;;;;;;;53.25;46.25;9.80;68.50;;;;;;5019810;28;8834;-63
2021/11/12 09:18:29;;;;;;;;;56.25;48.25;9.90;68.20;;;;;;5037585;28;8786;-64
2021/11/12 09:20:55;;;;;;;;;59.00;49.00;9.80;68.40;;;;;;5037231;28;8774;-63
2021/11/12 09:23:20;;;;;;;;;57.25;46.75;10.20;67.10;;;;;;5037408;28;8759;-63
2021/11/12 09:25:46;;;;;;;;;59.25;48.50;9.80;67.80;;;;;;5037420;28;8868;-62
2021/11/12 09:28:13;;;;;;;;;64.50;54.50;9.60;68.80;;;;;;5037286;28;8770;-62
2021/11/12 09:30:40;;;;;;;;;61.75;51.50;10.00;67.90;;;;;;5036796;28;8801;-62
2021/11/12 09:33:07;;;;;;;;;55.50;48.00;10.20;67.10;;;;;;5036951;28;8820;-62
2021/11/12 09:35:35;;;;;;;;;47.50;42.50;10.30;66.30;;;;;;5036944;28;8818;-63
2021/11/12 09:38:01;;;;;;;;;46.75;42.50;9.90;67.40;;;;;;5036828;28;8775;-62
2021/11/12 09:40:27;;;;;;;;;49.00;43.50;10.00;67.50;;;;;;5036925;28;8800;-63
2021/11/12 09:42:54;;;;;;;;;47.25;42.25;10.20;67.00;;;;;;5036810;28;8754;-60
2021/11/12 09:45:21;;;;;;;;;58.25;49.75;10.00;67.50;;;;;;5036571;28;8774;-64
2021/11/12 09:47:48;;;;;;;;;66.00;54.00;10.40;66.30;;;;;;5035399;28;8766;-66
2021/11/12 09:50:17;;;;;;;;;58.25;48.25;10.60;65.70;;;;;;5036955;28;8774;-66
2021/11/12 09:52:44;;;;;;;;;56.50;48.25;10.70;65.20;;;;;;5036848;28;8789;-63
2021/11/12 09:55:12;;;;;;;;;51.25;45.25;10.50;65.40;;;;;;5036450;28;8817;-64
2021/11/12 09:57:39;;;;;;;;;60.00;51.50;9.90;67.20;;;;;;5036930;28;9498;-64
2021/11/12 10:00:09;;;;;;;;;57.00;48.00;9.70;68.40;;;;;;5036776;28;9412;-65
2021/11/12 10:02:41;;;;;;;;;55.50;47.25;9.60;69.10;;;;;;5036742;28;8872;-64
2021/11/12 10:05:08;;;;;;;;;54.00;46.75;9.90;68.20;;;;;;5036374;28;8798;-63
2021/11/12 10:07:38;;;;;;;;;62.75;52.00;9.60;69.20;;;;;;5038637;28;8800;-62
2021/11/12 10:10:12;;;;;;;;;53.75;46.50;9.80;68.50;;;;;;5046821;28;8881;-64
2021/11/12 10:12:46;;;;;;;;;62.00;51.75;9.90;68.10;;;;;;5038949;28;8836;-62
2021/11/12 10:15:18;;;;;;;;;61.25;51.75;10.10;67.40;;;;;;5036308;28;8802;-64
2021/11/12 10:17:44;;;;;;;;;62.00;52.00;9.90;68.40;;;;;;5036232;28;8794;-64
2021/11/12 10:20:13;;;;;;;;;60.00;50.75;9.90;68.50;;;;;;5036213;28;8770;-64
2021/11/12 10:22:43;;;;;;;;;56.50;49.00;10.40;67.20;;;;;;5018637;28;8794;-64
2021/11/12 10:25:10;;;;;;;;;59.75;50.25;10.40;66.30;;;;;;5044709;28;8808;-64
2021/11/12 10:27:37;;;;;;;;;57.25;47.75;10.00;67.50;;;;;;5038278;28;8892;-64
2021/11/12 10:30:22;;;;;;;;;56.00;47.25;10.00;67.60;;;;;;5045265;28;8784;-64
2021/11/12 10:32:48;;;;;;;;;58.00;48.00;10.50;66.30;;;;;;5035804;28;8856;-65
2021/11/12 10:35:27;;;;;;;;;57.25;48.50;9.80;67.90;;;;;;5035560;28;8949;-62
2021/11/12 10:37:54;;;;;;;;;62.00;50.25;10.00;68.10;;;;;;5035782;28;8851;-63
2021/11/12 10:40:25;;;;;;;;;62.75;52.50;10.30;67.10;;;;;;5046817;28;8871;-64
2021/11/12 10:42:54;;;;;;;;;67.25;55.75;10.70;66.10;;;;;;5035724;28;8854;-63
2021/11/12 10:45:29;;;;;;;;;65.25;54.50;10.70;65.30;;;;;;5042520;28;8838;-63
2021/11/12 10:48:00;;;;;;;;;70.75;58.00;10.60;65.60;;;;;;5052123;28;8765;-63
2021/11/12 10:50:30;;;;;;;;;64.75;54.00;10.60;65.60;;;;;;5054612;28;8753;-62
2021/11/12 10:53:07;;;;;;;;;65.00;54.50;10.20;66.80;;;;;;5052164;28;9752;-63
2021/11/12 10:55:35;;;;;;;;;61.50;51.50;10.00;67.90;;;;;;5054459;28;8796;-62
2021/11/12 10:58:07;;;;;;;;;65.25;54.00;9.80;68.50;;;;;;5048512;28;8787;-63
2021/11/12 11:00:36;;;;;;;;;60.50;50.75;10.40;67.20;;;;;;5048860;28;8753;-62
2021/11/12 11:03:10;;;;;;;;;57.50;49.25;10.40;66.40;;;;;;5051912;28;8807;-61
2021/11/12 11:05:51;;;;;;;;;65.50;54.50;10.70;65.80;;;;;;5053922;28;8785;-61
2021/11/12 11:08:22;;;;;;;;;69.75;58.00;11.20;64.10;;;;;;5053982;28;9386;-61
2021/11/12 11:11:02;;;;;;;;;71.00;58.00;11.20;64.20;;;;;;5053853;28;8788;-62
2021/11/12 11:13:55;;;;;;;;;68.75;57.00;11.00;64.10;;;;;;5051623;28;8853;-62
2021/11/12 11:16:29;;;;;;;;;72.75;58.00;11.00;64.30;;;;;;5046025;28;8816;-63
2021/11/12 11:18:56;;;;;;;;;73.00;58.50;11.00;64.30;;;;;;5048371;28;8860;-63
2021/11/12 11:24:08;;;;;;;;;59.75;51.50;11.00;64.00;;;;;;5048742;28;8827;-62
2021/11/12 11:26:49;;;;;;;;;65.50;54.25;10.10;66.40;;;;;;5052099;28;9610;-60
2021/11/12 11:29:17;;;;;;;;;69.50;58.25;9.90;67.50;;;;;;5048548;28;8795;-62
2021/11/12 11:31:44;;;;;;;;;68.25;57.25;9.70;68.70;;;;;;5048495;28;8828;-62
2021/11/12 11:34:11;;;;;;;;;69.50;56.25;9.80;68.20;;;;;;5048673;28;8756;-62
2021/11/12 11:36:41;;;;;;;;;61.50;50.50;9.80;68.70;;;;;;5049757;28;8843;-61
2021/11/12 11:39:11;;;;;;;;;63.00;54.00;9.90;68.30;;;;;;5048744;28;8984;-64
2021/11/12 11:41:38;;;;;;;;;59.50;49.75;9.80;68.60;;;;;;5045146;28;8869;-62
2021/11/12 11:44:07;;;;;;;;;65.00;53.50;10.20;67.30;;;;;;5046825;28;8891;-64
2021/11/12 11:46:38;;;;;;;;;61.50;51.50;10.00;67.80;;;;;;5049405;28;8792;-61
2021/11/12 11:49:13;;;;;;;;;64.50;54.00;9.70;68.50;;;;;;5047098;28;9452;-63
2021/11/12 11:51:52;;;;;;;;;63.75;53.75;10.00;68.10;;;;;;5048192;28;8783;-63
2021/11/12 11:54:20;;;;;;;;;69.00;57.25;10.10;67.60;;;;;;5047935;28;8780;-63
2021/11/12 11:56:48;;;;;;;;;64.75;54.50;9.80;68.30;;;;;;5050588;28;8889;-61
2021/11/12 11:59:17;;;;;;;;;74.50;59.50;10.20;67.00;;;;;;5048867;28;9449;-63
2021/11/12 12:02:10;;;;;;;;;64.00;54.00;10.50;66.10;;;;;;5051059;28;8790;-62
2021/11/12 12:04:37;;;;;;;;;65.00;52.50;10.70;65.50;;;;;;5049915;28;8764;-63
2021/11/12 12:07:04;;;;;;;;;59.25;50.50;10.60;65.20;;;;;;5047495;28;8914;-63
2021/11/12 12:10:00;;;;;;;;;72.75;59.00;10.40;65.80;;;;;;5053322;28;8764;-63
2021/11/12 12:12:33;;;;;;;;;67.00;55.75;10.70;65.20;;;;;;5051711;28;8764;-62
2021/11/12 12:15:05;;;;;;;;;66.00;55.50;10.60;65.40;;;;;;5049518;28;8828;-63
2021/11/12 12:17:34;;;;;;;;;69.50;57.25;10.50;65.70;;;;;;5036517;28;8884;-62
2021/11/12 12:40:25;;;;;;;;;75.75;61.00;11.10;64.10;;;;;;5034902;28;8794;-62
2021/11/12 13:25:33;;;;;;;;;74.00;61.00;10.80;65.20;;;;;;5053888;28;8768;-62
2021/11/12 13:28:26;;;;;;;;;79.00;62.00;10.80;64.80;;;;;;5057047;28;8906;-62
2021/11/12 13:30:54;;;;;;;;;74.75;61.00;10.90;64.90;;;;;;5055692;28;8856;-63
2021/11/12 13:33:43;;;;;;;;;70.25;57.50;11.10;64.10;;;;;;5043321;28;8770;-63
2021/11/12 13:36:34;;;;;;;;;69.25;56.75;10.70;65.30;;;;;;5047200;28;8850;-63
2021/11/12 13:39:17;;;;;;;;;71.50;56.75;10.40;66.00;;;;;;5049753;28;8794;-62
2021/11/12 13:41:46;;;;;;;;;70.75;58.75;10.40;66.00;;;;;;5042488;28;8880;-62
2021/11/12 13:44:15;;;;;;;;;67.25;56.75;10.50;65.90;;;;;;5047418;28;8786;-61
2021/11/12 13:46:48;;;;;;;;;71.50;57.50;10.70;65.40;;;;;;5043198;28;8881;-62
2021/11/12 13:49:35;;;;;;;;;64.25;51.25;10.80;64.20;;;;;;5039957;28;8806;-63
2021/11/12 13:52:28;;;;;;;;;68.25;56.75;11.20;63.30;;;;;;5050258;28;8883;-62
2021/11/12 13:55:09;;;;;;;;;72.75;58.25;10.90;64.80;;;;;;5039814;28;8828;-63
2021/11/12 13:57:35;;;;;;;;;73.00;59.50;10.90;65.10;;;;;;5047938;28;8886;-66
2021/11/12 14:00:08;;;;;;;;;62.00;52.50;10.90;64.80;;;;;;5036745;28;8873;-62
2021/11/12 14:02:54;;;;;;;;;71.75;58.50;10.20;66.40;;;;;;5041507;28;8806;-65
2021/11/12 14:05:21;;;;;;;;;72.75;59.00;9.70;68.30;;;;;;5025333;28;8797;-67
2021/11/12 14:08:03;;;;;;;;;65.00;55.00;9.70;68.70;;;;;;5056496;28;8776;-62
2021/11/12 14:10:54;;;;;;;;;67.50;55.00;9.70;68.40;;;;;;5036709;28;8763;-67
2021/11/12 14:13:21;;;;;;;;;73.00;60.50;9.90;68.70;;;;;;5032641;28;8796;-72
2021/11/12 14:16:21;;;;;;;;;72.00;59.00;9.80;68.30;;;;;;5036440;28;8913;-66
2021/11/12 14:46:04;;;;;;;;;70.75;57.75;9.70;69.30;;;;;;5055813;28;8878;-65
2021/11/12 14:48:41;;;;;;;;;82.00;69.00;10.40;67.70;;;;;;5035315;28;8794;-65
2021/11/12 14:51:20;;;;;;;;;85.00;73.50;10.70;66.00;;;;;;5035492;28;8747;-65
2021/11/12 14:56:25;;;;;;;;;83.25;69.00;11.20;64.30;;;;;;5035736;28;8806;-66
2021/11/12 14:59:14;;;;;;;;;67.25;55.50;11.10;64.50;;;;;;5035800;28;8782;-65
2021/11/12 15:01:40;;;;;;;;;67.00;55.00;10.80;64.60;;;;;;5035328;28;8837;-64
2021/11/12 15:04:06;;;;;;;;;70.25;57.75;10.50;65.60;;;;;;5035356;28;8774;-65
2021/11/12 15:06:34;;;;;;;;;65.50;54.25;10.60;65.80;;;;;;5043950;28;8780;-66
2021/11/12 15:09:07;;;;;;;;;64.25;54.00;10.60;64.80;;;;;;5046003;28;8817;-67
2021/11/12 15:11:33;;;;;;;;;65.50;54.75;10.30;65.80;;;;;;5052237;28;8810;-67
2021/11/12 15:14:13;;;;;;;;;75.50;60.75;10.10;66.80;;;;;;5053938;28;8885;-66
2021/11/12 15:16:40;;;;;;;;;78.50;63.50;10.20;66.40;;;;;;5050419;28;9016;-66
2021/11/12 15:19:10;;;;;;;;;70.75;57.75;10.60;65.70;;;;;;5048147;28;8783;-65
2021/11/12 15:29:35;;;;;;;;;67.50;55.50;10.70;65.50;;;;;;5011694;28;8788;-66
2021/11/12 15:34:48;;;;;;;;;68.50;55.75;10.60;64.80;;;;;;5012791;28;8792;-67
2021/11/12 15:37:38;;;;;;;;;64.25;53.25;10.90;64.30;;;;;;5013000;28;8787;-65
2021/11/12 15:40:16;;;;;;;;;74.25;59.75;10.90;64.30;;;;;;5012760;28;8792;-66
2021/11/12 15:48:18;;;;;;;;;63.75;52.50;10.50;65.20;;;;;;4935406;29;8775;-66
2021/11/12 15:57:10;;;;;;;;;66.25;53.75;11.20;62.60;;;;;;4914320;29;8944;-67
2021/11/12 16:07:47;;;;;;;;;79.00;64.25;11.00;63.20;;;;;;4970550;28;8798;-68
2021/11/12 16:13:08;;;;;;;;;72.25;60.00;10.70;64.10;;;;;;4971744;28;8795;-67
2021/11/12 16:15:45;;;;;;;;;67.75;56.00;10.10;66.10;;;;;;4971700;28;8933;-68
2021/11/12 16:21:18;;;;;;;;;68.50;55.75;10.30;65.80;;;;;;4994656;28;8835;-69
2021/11/12 16:24:03;;;;;;;;;62.50;52.50;10.20;66.70;;;;;;5052972;28;8768;-69
2021/11/12 16:26:31;;;;;;;;;68.00;56.00;10.20;66.30;;;;;;5050775;28;9441;-72
2021/11/12 16:31:30;;;;;;;;;72.50;58.00;10.50;65.90;;;;;;5053760;28;9454;-69
2021/11/12 16:33:59;;;;;;;;;78.50;62.50;10.60;65.00;;;;;;5036506;28;8812;-75
2021/11/12 16:36:25;;;;;;;;;74.00;60.00;10.80;64.80;;;;;;5053979;28;8812;-64
2021/11/12 16:38:51;;;;;;;;;66.50;55.50;10.90;64.30;;;;;;5053978;28;9460;-65
2021/11/12 16:41:24;;;;;;;;;70.75;58.00;11.00;63.60;;;;;;5054183;28;8837;-66
2021/11/12 16:46:42;;;;;;;;;69.50;55.25;10.60;64.40;;;;;;5053965;28;8760;-66
2021/11/12 17:02:02;;;;;;;;;78.75;64.00;11.10;63.40;;;;;;5057750;28;8772;-65
2021/11/12 17:04:33;;;;;;;;;69.50;57.25;10.90;64.10;;;;;;5042717;28;8787;-65
2021/11/12 18:08:30;;;;;;;;;86.00;76.25;10.80;64.70;;;;;;5035296;28;8885;-67
2021/11/12 21:46:52;;;;;;;;;96.50;92.75;11.30;63.50;;;;;;5055569;28;8877;-66
2021/11/12 21:49:18;;;;;;;;;98.75;92.75;11.20;64.10;;;;;;5056745;28;8780;-67
2021/11/12 21:51:45;;;;;;;;;91.75;84.00;11.10;64.10;;;;;;5056714;28;9411;-69
2021/11/12 21:54:12;;;;;;;;;98.75;92.75;11.20;63.90;;;;;;5056542;28;8775;-67
2021/11/12 21:56:38;;;;;;;;;86.00;76.50;11.10;64.10;;;;;;5056260;28;9500;-65
2021/11/12 21:59:05;;;;;;;;;88.75;77.25;11.00;64.30;;;;;;5056826;28;9473;-69
2021/11/12 22:01:32;;;;;;;;;89.00;79.25;11.10;63.90;;;;;;5056555;28;8760;-69
2021/11/12 22:03:58;;;;;;;;;90.75;81.75;11.00;64.30;;;;;;5056355;28;9440;-68
2021/11/12 22:06:24;;;;;;;;;91.25;79.50;11.20;64.00;;;;;;5056537;28;8780;-66
2021/11/12 22:08:50;;;;;;;;;97.00;94.25;11.00;64.70;;;;;;5056363;28;8776;-68
2021/11/12 22:11:17;;;;;;;;;97.75;94.50;11.00;64.80;;;;;;5056389;28;8756;-73
2021/11/12 22:13:43;;;;;;;;;111.25;106.00;10.60;65.30;;;;;;5056162;28;8872;-69
2021/11/12 22:16:17;;;;;;;;;94.25;92.00;10.20;67.00;;;;;;5056134;28;8816;-69
2021/11/12 22:18:43;;;;;;;;;93.75;87.25;10.20;66.90;;;;;;5053804;28;8776;-72
2021/11/12 22:21:09;;;;;;;;;92.50;83.75;10.30;66.80;;;;;;5055900;28;8793;-71
2021/11/12 22:23:35;;;;;;;;;87.50;76.50;10.70;66.20;;;;;;5056045;28;8787;-72
2021/11/12 22:26:02;;;;;;;;;90.00;80.00;10.90;64.80;;;;;;5055949;28;8795;-71
2021/11/12 22:28:27;;;;;;;;;80.50;67.25;11.00;64.50;;;;;;5054672;28;8792;-72
2021/11/12 22:30:53;;;;;;;;;86.00;74.75;11.00;64.70;;;;;;5054378;28;9513;-71
2021/11/12 22:33:20;;;;;;;;;87.00;73.00;10.90;65.20;;;;;;5054536;28;8893;-71
2021/11/12 22:35:46;;;;;;;;;84.50;70.25;10.80;65.10;;;;;;5054465;28;9456;-73
2021/11/12 22:38:15;;;;;;;;;87.50;74.75;10.60;66.10;;;;;;5054639;28;8841;-71
2021/11/12 22:40:43;;;;;;;;;91.00;85.50;10.60;66.20;;;;;;5055780;28;8852;-71
2021/11/12 22:43:09;;;;;;;;;83.00;68.00;10.80;65.60;;;;;;5038006;28;8799;-71
2021/11/12 22:45:35;;;;;;;;;90.25;81.50;10.70;65.80;;;;;;5055681;28;8764;-71
2021/11/12 22:48:01;;;;;;;;;94.75;89.25;10.60;65.50;;;;;;5055959;28;9398;-70
2021/11/12 22:50:27;;;;;;;;;87.00;76.25;10.20;67.50;;;;;;5055661;28;8764;-71
2021/11/12 22:52:53;;;;;;;;;86.50;74.25;10.70;65.80;;;;;;5055887;28;8764;-71
2021/11/12 22:55:19;;;;;;;;;89.75;79.50;10.90;65.30;;;;;;5055144;28;8800;-71
2021/11/12 22:57:46;;;;;;;;;96.25;88.50;10.70;65.60;;;;;;5055508;28;8772;-72
2021/11/12 23:00:33;;;;;;;;;85.00;70.25;10.50;66.30;;;;;;5055457;28;8756;-70
2021/11/12 23:03:01;;;;;;;;;92.50;84.00;10.10;67.40;;;;;;5055657;28;8758;-71
2021/11/12 23:05:27;;;;;;;;;92.00;81.50;10.20;67.60;;;;;;5055220;28;8764;-69
2021/11/12 23:07:53;;;;;;;;;84.00;72.50;10.90;65.80;;;;;;5042200;28;8876;-69
2021/11/12 23:10:19;;;;;;;;;90.25;81.25;11.00;65.20;;;;;;5044212;28;8789;-67
2021/11/12 23:12:46;;;;;;;;;85.75;75.50;11.30;64.20;;;;;;5039833;28;8802;-68
2021/11/12 23:15:13;;;;;;;;;81.25;65.50;11.30;63.90;;;;;;5035471;28;8840;-67
2021/11/12 23:17:40;;;;;;;;;80.00;65.50;10.90;64.30;;;;;;5035198;28;8791;-67
2021/11/12 23:20:07;;;;;;;;;79.00;63.00;10.80;64.40;;;;;;5035187;28;8766;-65
2021/11/12 23:22:33;;;;;;;;;74.50;59.75;10.90;64.40;;;;;;5035238;28;8773;-66
2021/11/12 23:24:59;;;;;;;;;77.75;63.75;11.10;64.00;;;;;;5035081;28;8782;-67
2021/11/12 23:27:26;;;;;;;;;85.75;75.00;11.00;64.00;;;;;;5017563;28;8798;-69
2021/11/12 23:29:52;;;;;;;;;83.00;72.50;10.40;65.80;;;;;;5035020;28;8770;-66